Time,TemperatureF,DewpointF,PressureIn,WindDirection,WindDirectionDegrees,WindSpeedMPH,WindSpeedGustMPH,Humidity,HourlyPrecipIn,Conditions,Clouds,dailyrainin,SoftwareType,DateUTC
2013-12-20 00:11:00,24.0,18.0,-100.00,South,183,2.0,3.0,77,-99.99,,,-99.99,,2013-12-20 09:11:00,
2013-12-20 00:22:00,24.0,18.0,-100.00,SW,226,1.0,3.0,77,-99.99,,,-99.99,,2013-12-20 09:22:00,
2013-12-20 00:43:00,24.0,18.0,-100.00,SSE,148,2.0,3.0,79,0.00,,,-99.99,,2013-12-20 09:43:00,
2013-12-20 00:53:00,25.0,17.0,-100.00,South,184,0.0,2.0,72,-99.99,,,-99.99,,2013-12-20 09:53:00,
2013-12-20 01:12:00,25.0,18.0,-100.00,ENE,66,1.0,2.0,73,-99.99,,,-99.99,,2013-12-20 10:12:00,
2013-12-20 01:23:00,25.0,18.0,-100.00,WSW,242,0.0,1.0,74,-99.99,,,-99.99,,2013-12-20 10:23:00,
2013-12-20 01:42:00,24.0,18.0,-100.00,NE,56,2.0,3.0,78,0.00,,,-99.99,,2013-12-20 10:42:00,
2013-12-20 01:53:00,24.0,18.0,-100.00,NE,56,2.0,3.0,78,0.00,,,-99.99,,2013-12-20 10:53:00,
2013-12-20 02:03:00,24.0,18.0,-100.00,NE,56,2.0,3.0,78,0.00,,,-99.99,,2013-12-20 11:03:00,
2013-12-20 02:22:00,24.0,17.0,-100.00,SE,144,2.0,4.0,75,-99.99,,,-99.99,,2013-12-20 11:22:00,
2013-12-20 02:42:00,25.0,17.0,-100.00,South,173,0.0,2.0,72,0.00,,,-99.99,,2013-12-20 11:42:00,
2013-12-20 02:52:00,24.0,17.0,-100.00,SSW,199,1.0,4.0,74,-99.99,,,-99.99,,2013-12-20 11:52:00,
2013-12-20 03:12:00,24.0,17.0,-100.00,South,173,2.0,3.0,74,-99.99,,,-99.99,,2013-12-20 12:12:00,
2013-12-20 03:23:00,24.0,17.0,-100.00,SSW,199,1.0,2.0,75,-99.99,,,-99.99,,2013-12-20 12:23:00,
2013-12-20 03:32:00,24.0,17.0,-100.00,SSW,199,1.0,2.0,75,-99.99,,,-99.99,,2013-12-20 12:32:00,
2013-12-20 03:42:00,24.0,17.0,-100.00,SSW,199,1.0,2.0,75,-99.99,,,-99.99,,2013-12-20 12:42:00,
2013-12-20 04:11:00,25.0,18.0,-100.00,ESE,114,0.0,2.0,73,-99.99,,,-99.99,,2013-12-20 13:11:00,
2013-12-20 04:22:00,25.0,17.0,-100.00,South,174,1.0,3.0,72,-99.99,,,-99.99,,2013-12-20 13:22:00,
2013-12-20 04:42:00,25.0,17.0,-100.00,South,177,2.0,4.0,72,0.00,,,-99.99,,2013-12-20 13:42:00,
2013-12-20 04:51:00,24.0,17.0,-100.00,South,175,2.0,3.0,74,-99.99,,,-99.99,,2013-12-20 13:51:00,
2013-12-20 04:53:00,24.0,17.0,-100.00,SSE,166,3.0,4.0,74,-99.99,,,-99.99,,2013-12-20 13:53:00,
2013-12-20 05:02:00,24.0,17.0,-100.00,SSE,166,3.0,4.0,74,-99.99,,,-99.99,,2013-12-20 14:02:00,
2013-12-20 05:11:00,24.0,17.0,-100.00,SSE,166,3.0,4.0,74,-99.99,,,-99.99,,2013-12-20 14:11:00,
2013-12-20 05:22:00,24.0,17.0,-100.00,South,175,2.0,3.0,74,-99.99,,,-99.99,,2013-12-20 14:22:00,
2013-12-20 05:32:00,24.0,17.0,-100.00,South,175,2.0,3.0,74,-99.99,,,-99.99,,2013-12-20 14:32:00,
2013-12-20 05:42:00,24.0,17.0,-100.00,South,175,2.0,3.0,74,-99.99,,,-99.99,,2013-12-20 14:42:00,
2013-12-20 06:44:00,25.0,17.0,-100.00,South,169,0.0,2.0,71,-99.99,,,-99.99,,2013-12-20 15:44:00,
2013-12-20 06:53:00,26.0,17.0,-100.00,ENE,65,3.0,5.0,68,-99.99,,,-99.99,,2013-12-20 15:53:00,
2013-12-20 07:13:00,26.0,17.0,-100.00,East,99,4.0,8.0,67,-99.99,,,-99.99,,2013-12-20 16:13:00,
2013-12-20 07:43:00,25.0,16.0,-100.00,South,174,3.0,3.0,69,0.00,,,-99.99,,2013-12-20 16:43:00,
2013-12-20 07:53:00,25.0,16.0,-100.00,South,174,3.0,3.0,69,0.00,,,-99.99,,2013-12-20 16:53:00,
2013-12-20 08:02:00,25.0,16.0,-100.00,South,174,3.0,3.0,69,0.00,,,-99.99,,2013-12-20 17:02:00,
2013-12-20 08:42:00,28.0,16.0,-100.00,SSE,158,0.0,2.0,61,0.00,,,-99.99,,2013-12-20 17:42:00,
2013-12-20 08:52:00,28.0,16.0,-100.00,SSE,158,0.0,2.0,61,0.00,,,-99.99,,2013-12-20 17:52:00,
2013-12-20 09:02:00,28.0,16.0,-100.00,SSE,158,0.0,2.0,61,0.00,,,-99.99,,2013-12-20 18:02:00,
2013-12-20 09:22:00,29.0,15.0,-100.00,SE,124,1.0,3.0,56,-99.99,,,-99.99,,2013-12-20 18:22:00,
2013-12-20 09:42:00,29.0,17.0,-100.00,ESE,107,3.0,4.0,61,0.00,,,-99.99,,2013-12-20 18:42:00,
2013-12-20 09:52:00,29.0,17.0,-100.00,WSW,249,2.0,8.0,60,-99.99,,,-99.99,,2013-12-20 18:52:00,
2013-12-20 10:12:00,28.0,17.0,-100.00,SSE,156,2.0,4.0,62,-99.99,,,-99.99,,2013-12-20 19:12:00,
2013-12-20 10:42:00,27.0,18.0,-100.00,South,172,3.0,4.0,67,0.00,,,-99.99,,2013-12-20 19:42:00,
2013-12-20 10:52:00,28.0,17.0,-100.00,SSE,165,2.0,5.0,63,-99.99,,,-99.99,,2013-12-20 19:52:00,
2013-12-20 11:11:00,29.0,16.0,-100.00,ENE,74,2.0,4.0,59,-99.99,,,-99.99,,2013-12-20 20:11:00,
2013-12-20 11:21:00,29.0,20.0,-100.00,ESE,121,1.0,4.0,68,-99.99,,,-99.99,,2013-12-20 20:21:00,
2013-12-20 11:42:00,29.0,18.0,-100.00,SSE,158,0.0,3.0,64,0.00,,,-99.99,,2013-12-20 20:42:00,
2013-12-20 11:52:00,30.0,20.0,-100.00,SSW,210,0.0,0.0,66,-99.99,,,-99.99,,2013-12-20 20:52:00,
2013-12-20 12:02:00,30.0,20.0,-100.00,SSW,210,0.0,0.0,66,-99.99,,,-99.99,,2013-12-20 21:02:00,
2013-12-20 12:12:00,30.0,20.0,-100.00,SSW,210,0.0,0.0,66,-99.99,,,-99.99,,2013-12-20 21:12:00,
2013-12-20 12:43:00,30.0,22.0,-100.00,SSW,196,1.0,3.0,73,0.00,,,-99.99,,2013-12-20 21:43:00,
2013-12-20 12:53:00,29.0,18.0,-100.00,SSE,165,1.0,3.0,62,-99.99,,,-99.99,,2013-12-20 21:53:00,
2013-12-20 13:13:00,30.0,22.0,-100.00,East,84,0.0,4.0,73,-99.99,,,-99.99,,2013-12-20 22:13:00,
2013-12-20 13:23:00,30.0,22.0,-100.00,East,84,0.0,4.0,73,-99.99,,,-99.99,,2013-12-20 22:23:00,
2013-12-20 13:33:00,30.0,22.0,-100.00,East,84,0.0,4.0,73,-99.99,,,-99.99,,2013-12-20 22:33:00,
2013-12-20 13:52:00,32.0,24.0,-100.00,SSE,154,2.0,3.0,72,-99.99,,,-99.99,,2013-12-20 22:52:00,
2013-12-20 14:12:00,32.0,24.0,-100.00,SSE,155,1.0,8.0,72,-99.99,,,-99.99,,2013-12-20 23:12:00,
2013-12-20 14:22:00,32.0,24.0,-100.00,SSE,154,2.0,3.0,72,-99.99,,,-99.99,,2013-12-20 23:22:00,
2013-12-20 14:33:00,32.0,24.0,-100.00,SSE,154,2.0,3.0,72,-99.99,,,-99.99,,2013-12-20 23:33:00,
2013-12-20 14:42:00,32.0,24.0,-100.00,SSE,154,2.0,3.0,72,-99.99,,,-99.99,,2013-12-20 23:42:00,
2013-12-20 15:22:00,30.0,22.0,-100.00,SSE,153,1.0,3.0,72,-99.99,,,-99.99,,2013-12-21 00:22:00,
2013-12-20 15:42:00,30.0,22.0,-100.00,SE,145,1.0,3.0,72,0.00,,,-99.99,,2013-12-21 00:42:00,
2013-12-20 15:52:00,30.0,22.0,-100.00,SE,145,1.0,3.0,72,0.00,,,-99.99,,2013-12-21 00:52:00,
2013-12-20 16:02:00,30.0,22.0,-100.00,SE,145,1.0,3.0,72,0.00,,,-99.99,,2013-12-21 01:02:00,
2013-12-20 16:42:00,29.0,22.0,-100.00,SSW,196,3.0,4.0,76,0.00,,,-99.99,,2013-12-21 01:42:00,
2013-12-20 16:51:00,29.0,19.0,-100.00,South,176,1.0,3.0,66,-99.99,,,-99.99,,2013-12-21 01:51:00,
2013-12-20 16:52:00,29.0,22.0,-100.00,SSW,196,3.0,4.0,76,0.00,,,-99.99,,2013-12-21 01:52:00,
2013-12-20 17:01:00,29.0,22.0,-100.00,SSW,196,3.0,4.0,76,0.00,,,-99.99,,2013-12-21 02:01:00,
2013-12-20 17:21:00,29.0,19.0,-100.00,South,176,1.0,3.0,66,-99.99,,,-99.99,,2013-12-21 02:21:00,
2013-12-20 17:32:00,29.0,19.0,-100.00,South,176,1.0,3.0,66,-99.99,,,-99.99,,2013-12-21 02:32:00,
2013-12-20 17:42:00,29.0,19.0,-100.00,South,176,1.0,3.0,66,-99.99,,,-99.99,,2013-12-21 02:42:00,
2013-12-20 18:11:00,27.0,23.0,-100.00,East,93,0.0,3.0,85,-99.99,,,-99.99,,2013-12-21 03:11:00,
2013-12-20 18:21:00,27.0,23.0,-100.00,East,93,0.0,3.0,85,-99.99,,,-99.99,,2013-12-21 03:21:00,
2013-12-20 18:43:00,25.0,22.0,-100.00,NNE,19,0.0,1.0,90,0.00,,,-99.99,,2013-12-21 03:43:00,
2013-12-20 18:53:00,25.0,23.0,-100.00,SSW,200,0.0,2.0,93,-99.99,,,-99.99,,2013-12-21 03:53:00,
2013-12-20 19:02:00,25.0,23.0,-100.00,SSW,200,0.0,2.0,93,-99.99,,,-99.99,,2013-12-21 04:02:00,
2013-12-20 19:12:00,25.0,23.0,-100.00,SSW,200,0.0,2.0,93,-99.99,,,-99.99,,2013-12-21 04:12:00,
2013-12-20 20:52:00,25.0,24.0,-100.00,SW,219,0.0,1.0,97,-99.99,,,-99.99,,2013-12-21 05:52:00,
2013-12-20 21:12:00,26.0,25.0,-100.00,East,88,1.0,6.0,97,-99.99,,,-99.99,,2013-12-21 06:12:00,
2013-12-20 21:21:00,26.0,25.0,-100.00,East,88,1.0,6.0,97,-99.99,,,-99.99,,2013-12-21 06:21:00,
2013-12-20 21:42:00,26.0,25.0,-100.00,South,174,3.0,17.0,95,0.00,,,-99.99,,2013-12-21 06:42:00,
2013-12-20 21:51:00,31.0,27.0,-100.00,SE,125,12.0,27.0,85,-99.99,,,-99.99,,2013-12-21 06:51:00,
2013-12-20 21:52:00,31.0,27.0,-100.00,SE,130,13.0,31.0,86,-99.99,,,-99.99,,2013-12-21 06:52:00,
2013-12-20 22:11:00,29.0,26.0,-100.00,SE,137,9.0,24.0,88,-99.99,,,-99.99,,2013-12-21 07:11:00,
2013-12-20 22:22:00,31.0,27.0,-100.00,SE,125,12.0,27.0,85,-99.99,,,-99.99,,2013-12-21 07:22:00,
2013-12-20 22:32:00,31.0,27.0,-100.00,SE,125,12.0,27.0,85,-99.99,,,-99.99,,2013-12-21 07:32:00,
2013-12-20 22:42:00,31.0,27.0,-100.00,SE,125,12.0,27.0,85,-99.99,,,-99.99,,2013-12-21 07:42:00,
2013-12-20 23:12:00,31.0,27.0,-100.00,ESE,113,18.0,44.0,84,-99.99,,,-99.99,,2013-12-21 08:12:00,
2013-12-20 23:21:00,31.0,26.0,-100.00,ESE,117,18.0,39.0,81,-99.99,,,-99.99,,2013-12-21 08:21:00,
2013-12-20 23:42:00,31.0,26.0,-100.00,ESE,122,13.0,31.0,81,0.00,,,-99.99,,2013-12-21 08:42:00,
2013-12-20 23:52:00,31.0,25.0,-100.00,ESE,113,17.0,36.0,79,-99.99,,,-99.99,,2013-12-21 08:52:00,